Observations for GROSSETO IT-AFB, Italy (LIRS)

LIRS 180655Z VRB03KT CAVOK 23/17 Q1014  
LIRS 180655Z VRB03KT CAVOK 23/17 Q1014 RMK SKC VIS MIN 9999 WIND THR03 07003KT WIND THR21 11002KT BLU
LIRS 180555Z 06004KT CAVOK 21/17 Q1014  
LIRS 180555Z 06004KT CAVOK 21/17 Q1014 RMK SKC VIS MIN 9999 WIND THR03 06004KT WIND THR21 03003KT BLU
LIRS 180455Z VRB01KT CAVOK 17/16 Q1013  
LIRS 180455Z VRB01KT CAVOK 17/16 Q1013 RMK SKC VIS MIN 9999 WIND THR03 01001KT WIND THR21 27001KT BLU
LIRS 180355Z VRB02KT CAVOK 17/14 Q1013  
LIRS 180355Z VRB02KT CAVOK 17/14 Q1013 RMK SKC VIS MIN 9999 WIND THR03 05002KT WIND THR21 35001KT BLU
LIRS 180255Z VRB01KT CAVOK 18/16 Q1013  
LIRS 180255Z VRB01KT CAVOK 18/16 Q1013 RMK SKC VIS MIN 9999 WIND THR03 13002KT WIND THR21 13002KT BLU
LIRS 180155Z VRB01KT CAVOK 18/18 Q1013  
LIRS 180155Z VRB01KT CAVOK 18/18 Q1013 RMK SKC VIS MIN 9999 WIND THR03 03002KT WIND THR21 01003KT BLU
LIRS 180055Z VRB02KT CAVOK 20/19 Q1013  
LIRS 180055Z VRB02KT CAVOK 20/19 Q1013 RMK FEW FEW100 VIS MIN 9999 WIND THR03 18001KT WIND THR21 17001KT BLU
LIRS 172355Z 13002KT CAVOK 20/18 Q1013  
LIRS 172355Z 13002KT CAVOK 20/18 Q1013 RMK SCT SCT100 VIS MIN 9999 WIND THR03 14002KT WIND THR21 14002KT BLU
LIRS 172255Z VRB01KT CAVOK 21/19 Q1013 RMK FEW FEW100 VIS MIN 9999 WIND THR03 21001KT WIND THR21 28001KT BLU
LIRS 172155Z VRB02KT CAVOK 22/19 Q1013 RMK SKC VIS MIN 9999 WIND THR03 17001KT WIND THR21 09004KT BLU   
LIRS 172055Z 04006KT 9999 FEW060 22/19 Q1012 RMK FEW VIS MIN 9999 WIND THR03 05006KT WIND THR21 05005KT BLU 
LIRS 171955Z 34009KT 9999 FEW030CB SCT060 23/20 Q1012 RMK SCT VIS MIN 9999 WIND THR03 35007KT WIND THR21 35008KT BLU
LIRS 171855Z 07003KT 9999 FEW030CB SCT060 26/20 Q1012   
LIRS 171855Z 07003KT 9999 FEW030CB SCT060 26/20 Q1012 RMK SCT VIS MIN 9999 WINDTHR03 11003KT WIND THR21 06003KT BLU
LIRS 171755Z 14004KT 9999 FEW020CB 28/20 Q1011 RMK BKN SCT100 VIS MIN 9999 WIND THR03 21003KT WIND THR21 03004KT BLU
LIRS 171655Z 27005KT 9999 FEW030TCU SCT060 29/19 Q1011  
LIRS 171655Z 27005KT 9999 FEW030TCU SCT060 29/19 Q1011 RMK BKN VIS MIN 9999 WIND THR03 29006KT WIND THR21 29007KT BLU
LIRS 171555Z 25005KT 9999 FEW040 28/19 Q1011
LIRS 171555Z 25005KT 9999 FEW040 28/19 Q1011 RMK BKN SCT080 VIS MIN 9999 WIND THR03 25007KT WIND THR21 26006KT BLU
LIRS 171455Z 23007KT 9999 FEW030TCU FEW035CB 28/20 Q1011 RMK BKN SCT070 VIS MIN 9999 WIND THR03 25007KT WIND THR21 25005KT BLU  
LIRS 171355Z 20011KT 9999 FEW025CB FEW030CB FEW035TCU 30/18 Q1012 RMK SCT VIS MIN 9999 WIND THR03 21012KT WIND THR21 21010KT BLU
LIRS 171255Z 21006KT 9999 SCT060 31/16 Q1012
LIRS 171255Z 21006KT 9999 SCT060 31/16 Q1012 RMK SCT VIS MIN 9999 WIND THR03 21009KT WIND THR21 22007KT BLU
LIRS 171155Z 23011KT 9999 SCT060 29/19 Q1013
LIRS 171155Z 23011KT 9999 SCT060 29/19 Q1013 RMK SCT VIS MIN 9999 WIND THR03 24011KT WIND THR21 24012KT BLU
LIRS 171055Z 21014KT 9999 SCT060 24/13 Q1013
LIRS 171055Z 21014KT 9999 SCT060 24/13 Q1013 RMK SCT VIS MIN 9999 WIND THR03 23013KT WIND THR21 22012KT BLU
LIRS 170955Z 31003KT 9999 FEW020 28/17 Q1014
LIRS 170955Z 31003KT 9999 FEW020 28/17 Q1014 RMK FEW VIS MIN 9999 WIND THR03 35003KT WIND THR21 33003KT BLU
LIRS 170855Z 33005KT CAVOK 27/16 Q1014  
LIRS 170855Z 33005KT CAVOK 27/16 Q1014 RMK SKC VIS MIN 9999 WIND THR03 34005KT WIND THR21 34005KT BLU
LIRS 170755Z 36004KT CAVOK 24/16 Q1014 RMK SKC VIS MIN 9999 WIND THR03 35005KT WIND THR21 35005KT BLU   
LIRS 170655Z 36005KT CAVOK 21/16 Q1014 RMK SKC VIS MIN 9999 WIND THR03 02006KT WIND THR21 02005KT BLU